createdAt,value
2023-01-11T00:00:25.794Z,30.48
2023-01-11T00:03:12.564Z,31.70
2023-01-11T00:05:43.134Z,33.00
2023-01-11T00:08:09.930Z,35.97
2023-01-11T00:10:37.270Z,32.05
2023-01-11T00:13:04.153Z,29.83
2023-01-11T00:15:31.209Z,34.40
2023-01-11T00:17:57.918Z,31.10
2023-01-11T00:20:25.083Z,32.20
2023-01-11T00:22:51.810Z,30.30
2023-01-11T00:25:18.856Z,31.25
2023-01-11T00:27:47.388Z,34.45
2023-01-11T00:30:14.574Z,30.85
2023-01-11T00:32:41.369Z,33.75
2023-01-11T00:35:08.784Z,34.28
2023-01-11T00:37:35.590Z,34.40
2023-01-11T00:40:02.849Z,32.88
2023-01-11T00:42:48.194Z,29.02
2023-01-11T00:45:33.941Z,35.28
2023-01-11T00:48:01.182Z,34.10
2023-01-11T00:50:31.806Z,29.48
2023-01-11T00:52:58.818Z,31.30
2023-01-11T00:55:26.323Z,29.90
2023-01-11T00:57:53.076Z,37.47
2023-01-11T01:00:20.940Z,32.13
2023-01-11T01:02:47.911Z,30.88
2023-01-11T01:05:15.109Z,32.08
2023-01-11T01:07:41.907Z,32.05
2023-01-11T01:10:09.520Z,33.45
2023-01-11T01:12:54.775Z,32.05
2023-01-11T01:15:21.876Z,31.35
2023-01-11T01:17:48.588Z,33.00
2023-01-11T01:20:15.790Z,34.28
2023-01-11T01:22:42.419Z,29.75
2023-01-11T01:25:09.751Z,30.50
2023-01-11T01:27:36.546Z,28.33
2023-01-11T01:30:05.051Z,30.42
2023-01-11T01:32:31.786Z,28.83
2023-01-11T01:34:58.812Z,34.58
2023-01-11T01:37:26.331Z,30.45
2023-01-11T01:39:53.274Z,27.88
2023-01-11T01:42:20.674Z,29.17
2023-01-11T01:45:04.018Z,28.75
2023-01-11T01:47:45.704Z,30.65
2023-01-11T01:50:41.981Z,31.65
2023-01-11T01:53:11.296Z,32.28
2023-01-11T01:55:39.638Z,29.27
2023-01-11T01:58:09.353Z,27.70
2023-01-11T02:00:41.128Z,28.38
2023-01-11T02:03:45.218Z,30.20
2023-01-11T02:06:12.125Z,26.17
2023-01-11T02:08:39.453Z,31.80
2023-01-11T02:11:26.444Z,28.92
2023-01-11T02:13:53.689Z,26.40
2023-01-11T02:16:20.675Z,24.52
2023-01-11T02:18:47.396Z,27.85
2023-01-11T02:21:22.009Z,23.67
2023-01-11T02:24:16.640Z,27.85
2023-01-11T02:26:52.836Z,30.38
2023-01-11T02:29:25.769Z,32.28
2023-01-11T02:32:26.265Z,28.10
2023-01-11T02:35:08.883Z,26.42
2023-01-11T02:37:44.573Z,28.95
2023-01-11T02:43:11.244Z,27.25
2023-01-11T02:45:56.246Z,22.65
2023-01-11T02:48:31.334Z,30.05
2023-01-11T02:51:12.990Z,26.05
2023-01-11T02:53:41.539Z,25.20
2023-01-11T02:56:11.260Z,29.42
2023-01-11T02:58:40.075Z,25.48
2023-01-11T03:01:06.803Z,29.50
2023-01-11T03:03:34.193Z,27.15
2023-01-11T03:06:02.422Z,26.50
2023-01-11T03:09:01.236Z,26.95
2023-01-11T03:12:05.431Z,27.33
2023-01-11T03:15:05.818Z,26.27
2023-01-11T03:18:01.820Z,27.40
2023-01-11T03:20:37.667Z,26.63
2023-01-11T03:23:07.323Z,26.52
2023-01-11T03:25:53.635Z,27.55
2023-01-11T03:28:23.272Z,25.00
2023-01-11T03:31:02.495Z,30.00
2023-01-11T03:33:45.562Z,29.17
2023-01-11T03:36:18.720Z,26.95
2023-01-11T03:38:55.557Z,27.77
2023-01-11T03:41:30.384Z,29.77
2023-01-11T03:43:57.060Z,27.45
2023-01-11T03:46:27.013Z,27.40
2023-01-11T03:49:04.195Z,25.23
2023-01-11T03:51:34.005Z,27.63
2023-01-11T03:54:01.903Z,26.90
2023-01-11T03:57:07.041Z,27.88
2023-01-11T03:59:33.811Z,26.40
2023-01-11T04:02:01.027Z,26.70
2023-01-11T04:04:27.932Z,28.45
2023-01-11T04:06:54.929Z,27.85
2023-01-11T04:09:21.721Z,28.35
2023-01-11T04:11:51.644Z,26.13
2023-01-11T04:14:18.271Z,29.48
2023-01-11T04:16:45.187Z,30.77
2023-01-11T04:19:11.787Z,30.27
2023-01-11T04:21:38.783Z,34.42
2023-01-11T04:24:05.729Z,31.95
2023-01-11T04:26:33.173Z,30.88
2023-01-11T04:28:59.815Z,33.63
2023-01-11T04:31:26.867Z,34.42
2023-01-11T04:33:53.607Z,39.40
2023-01-11T04:36:20.607Z,36.17
2023-01-11T04:38:47.398Z,35.30
2023-01-11T04:41:32.873Z,36.05
2023-01-11T04:43:59.618Z,35.83
2023-01-11T04:46:26.583Z,37.88
2023-01-11T04:48:53.325Z,34.50
2023-01-11T04:51:20.354Z,35.00
2023-01-11T04:53:49.053Z,41.42
2023-01-11T04:56:16.305Z,35.97
2023-01-11T04:58:42.933Z,41.95
2023-01-11T05:01:11.260Z,43.72
2023-01-11T05:03:38.250Z,43.50
2023-01-11T05:06:05.563Z,47.75
2023-01-11T05:08:32.370Z,45.22
2023-01-11T05:11:00.866Z,41.38
2023-01-11T05:13:42.748Z,42.78
2023-01-11T05:16:23.824Z,41.63
2023-01-11T05:18:52.189Z,45.13
2023-01-11T05:21:22.176Z,42.28
2023-01-11T05:23:49.181Z,47.33
2023-01-11T05:26:22.939Z,42.60
2023-01-11T05:28:49.779Z,44.67
2023-01-11T05:31:17.111Z,44.72
2023-01-11T05:33:43.925Z,43.10
2023-01-11T05:36:16.241Z,44.38
2023-01-11T05:38:43.026Z,49.83
2023-01-11T05:41:10.119Z,51.10
2023-01-11T05:43:59.976Z,46.10
2023-01-11T05:46:27.094Z,43.90
2023-01-11T05:48:56.841Z,45.88
2023-01-11T05:51:23.829Z,44.45
2023-01-11T05:53:50.474Z,42.78
2023-01-11T05:56:17.437Z,51.80
2023-01-11T05:58:44.076Z,47.53
2023-01-11T06:01:11.977Z,48.85
2023-01-11T06:03:38.656Z,51.22
2023-01-11T06:06:05.873Z,50.10
2023-01-11T06:08:32.524Z,52.95
2023-01-11T06:10:59.513Z,49.33
2023-01-11T06:13:29.302Z,53.70
2023-01-11T06:16:00.562Z,51.22
2023-01-11T06:18:28.570Z,50.65
2023-01-11T06:20:55.841Z,56.13
2023-01-11T06:23:23.205Z,46.90
2023-01-11T06:25:50.135Z,52.35
2023-01-11T06:28:16.869Z,53.88
2023-01-11T06:30:43.859Z,50.78
2023-01-11T06:33:10.507Z,53.17
2023-01-11T06:35:41.397Z,53.38
2023-01-11T06:38:09.348Z,53.38
2023-01-11T06:40:36.771Z,53.65
2023-01-11T06:43:03.752Z,51.55
2023-01-11T06:45:30.897Z,51.00
2023-01-11T06:47:57.842Z,53.60
2023-01-11T06:50:24.894Z,58.75
2023-01-11T06:52:55.873Z,57.53
2023-01-11T06:55:23.168Z,59.70
2023-01-11T06:57:49.867Z,54.95
2023-01-11T07:00:17.554Z,56.15
2023-01-11T07:02:45.049Z,54.45
2023-01-11T07:05:12.439Z,54.60
2023-01-11T07:07:39.361Z,62.80
2023-01-11T07:10:08.125Z,58.08
2023-01-11T07:12:35.677Z,63.13
2023-01-11T07:15:06.770Z,62.30
2023-01-11T07:17:33.794Z,62.53
2023-01-11T07:20:00.824Z,64.50
2023-01-11T07:22:28.324Z,60.13
2023-01-11T07:24:55.334Z,66.72
2023-01-11T07:27:21.994Z,66.05
2023-01-11T07:29:48.909Z,68.47
2023-01-11T07:32:16.716Z,68.72
2023-01-11T07:34:43.657Z,69.25
2023-01-11T07:37:28.427Z,69.07
2023-01-11T07:39:56.421Z,72.97
2023-01-11T07:42:41.878Z,77.22
2023-01-11T07:45:09.202Z,77.95
2023-01-11T07:47:35.952Z,74.32
2023-01-11T07:50:03.055Z,77.03
2023-01-11T07:52:29.740Z,79.43
2023-01-11T07:55:02.445Z,74.05
2023-01-11T07:57:30.037Z,77.03
2023-01-11T07:59:57.063Z,75.65
2023-01-11T08:02:23.866Z,73.70
2023-01-11T08:04:50.983Z,79.32
2023-01-11T08:07:17.648Z,73.95
2023-01-11T08:09:44.666Z,77.63
2023-01-11T08:12:29.792Z,75.72
2023-01-11T08:14:56.725Z,72.95
2023-01-11T08:17:23.772Z,69.90
2023-01-11T08:19:50.758Z,73.18
2023-01-11T08:22:20.304Z,69.13
2023-01-11T08:24:47.364Z,77.30
2023-01-11T08:27:14.192Z,74.10
2023-01-11T08:29:44.124Z,70.38
2023-01-11T08:32:14.298Z,67.97
2023-01-11T08:34:41.514Z,69.72
2023-01-11T08:37:08.182Z,64.78
2023-01-11T08:39:35.246Z,66.78
2023-01-11T08:42:03.149Z,70.00
2023-01-11T08:44:34.521Z,67.13
2023-01-11T08:47:02.952Z,66.82
2023-01-11T08:49:30.696Z,66.80
2023-01-11T08:51:57.597Z,68.20
2023-01-11T08:54:25.080Z,75.00
2023-01-11T08:56:51.783Z,75.05
2023-01-11T08:59:19.954Z,72.60
2023-01-11T09:01:47.433Z,68.43
2023-01-11T09:04:24.175Z,77.78
2023-01-11T09:06:52.881Z,73.85
2023-01-11T09:09:19.943Z,66.85
2023-01-11T09:11:57.093Z,73.07
2023-01-11T09:14:25.395Z,73.38
2023-01-11T09:16:52.623Z,75.10
2023-01-11T09:19:19.874Z,72.45
2023-01-11T09:21:46.800Z,66.75
2023-01-11T09:24:14.187Z,69.63
2023-01-11T09:26:43.309Z,63.17
2023-01-11T09:29:11.316Z,64.07
2023-01-11T09:31:38.158Z,58.60
2023-01-11T09:34:06.869Z,67.15
2023-01-11T09:36:35.948Z,68.43
2023-01-11T09:39:07.618Z,78.43
2023-01-11T09:42:05.402Z,86.18
2023-01-11T09:44:34.513Z,93.03
2023-01-11T09:47:14.505Z,93.60
2023-01-11T09:49:43.289Z,90.07
2023-01-11T09:52:28.771Z,90.05
2023-01-11T09:57:44.506Z,82.72
2023-01-11T10:00:12.172Z,76.70
2023-01-11T10:03:00.711Z,78.93
2023-01-11T10:05:40.060Z,74.68
2023-01-11T10:18:26.029Z,64.50
2023-01-11T10:18:37.473Z,63.17
2023-01-11T10:20:35.359Z,65.75
2023-01-11T10:23:08.960Z,66.45
2023-01-11T10:25:42.657Z,62.38
2023-01-11T10:28:32.236Z,61.42
2023-01-11T10:30:58.913Z,59.35
2023-01-11T10:34:03.591Z,57.65
2023-01-11T10:37:12.886Z,53.75
2023-01-11T10:40:07.036Z,53.65
2023-01-11T10:42:39.925Z,50.65
2023-01-11T10:45:14.349Z,47.53
2023-01-11T10:48:02.986Z,47.78
2023-01-11T10:51:01.773Z,39.60
2023-01-11T10:53:55.114Z,37.72
2023-01-11T10:56:24.588Z,40.78
2023-01-11T10:59:00.681Z,41.58
2023-01-11T11:01:42.208Z,47.60
2023-01-11T11:04:44.275Z,47.20
2023-01-11T11:07:20.600Z,49.67
2023-01-11T11:09:55.727Z,47.50
2023-01-11T11:12:28.869Z,46.33
2023-01-11T11:15:25.299Z,43.22
2023-01-11T11:17:53.097Z,38.17
2023-01-11T11:20:24.249Z,39.95
2023-01-11T11:22:52.027Z,35.70
2023-01-11T11:25:27.528Z,36.28
2023-01-11T11:28:05.047Z,35.17
2023-01-11T11:30:38.172Z,33.53
2023-01-11T11:33:26.070Z,32.50
2023-01-11T11:36:09.486Z,29.05
2023-01-11T11:38:43.237Z,25.25
2023-01-11T11:41:15.040Z,28.30
2023-01-11T11:43:43.248Z,25.33
2023-01-11T11:46:19.888Z,22.65
2023-01-11T11:49:10.572Z,17.73
2023-01-11T11:51:37.357Z,21.33
2023-01-11T11:54:04.368Z,16.85
2023-01-11T11:56:33.090Z,16.10
2023-01-11T11:59:05.137Z,18.02
2023-01-11T12:01:34.060Z,16.20
2023-01-11T12:04:03.661Z,14.73
2023-01-11T12:06:30.532Z,13.57
2023-01-11T12:08:59.253Z,13.52
2023-01-11T12:11:36.052Z,12.80
2023-01-11T12:14:22.622Z,10.93
2023-01-11T12:16:49.440Z,11.00
2023-01-11T12:19:41.875Z,9.95
2023-01-11T12:22:22.347Z,10.85
2023-01-11T12:25:05.292Z,8.93
2023-01-11T12:27:56.072Z,9.57
2023-01-11T12:30:46.804Z,11.73
2023-01-11T12:33:31.942Z,7.88
2023-01-11T12:36:05.040Z,7.20
2023-01-11T12:38:45.630Z,11.07
2023-01-11T12:41:19.687Z,8.55
2023-01-11T12:44:01.810Z,7.93
2023-01-11T12:46:31.858Z,8.50
2023-01-11T12:49:23.651Z,8.23
2023-01-11T12:52:29.332Z,8.63
2023-01-11T12:55:30.240Z,9.97
2023-01-11T12:58:01.446Z,7.28
2023-01-11T13:00:58.624Z,7.43
2023-01-11T13:03:34.158Z,9.57
2023-01-11T13:06:14.435Z,9.70
2023-01-11T13:08:56.621Z,12.75
2023-01-11T13:11:43.511Z,13.40
2023-01-11T13:14:22.629Z,12.35
2023-01-11T13:16:56.654Z,9.82
2023-01-11T13:19:32.731Z,12.00
2023-01-11T13:21:59.635Z,14.07
2023-01-11T13:24:28.933Z,11.32
2023-01-11T13:26:59.482Z,12.05
2023-01-11T13:29:31.783Z,13.57
2023-01-11T13:31:59.521Z,11.80
2023-01-11T13:34:38.995Z,11.60
2023-01-11T13:37:22.781Z,15.60
2023-01-11T13:39:55.851Z,12.05
2023-01-11T13:42:24.621Z,12.23
2023-01-11T13:45:04.315Z,13.30
2023-01-11T13:47:33.215Z,11.07
2023-01-11T13:50:20.284Z,15.85
2023-01-11T13:53:15.337Z,14.30
2023-01-11T13:55:59.088Z,9.73
2023-01-11T13:58:44.342Z,11.65
2023-01-11T14:01:15.570Z,12.52
2023-01-11T14:03:51.395Z,13.95
2023-01-11T14:06:24.458Z,10.70
2023-01-11T14:08:54.187Z,12.18
2023-01-11T14:11:43.045Z,12.57
2023-01-11T14:14:31.703Z,14.50
2023-01-11T14:17:17.371Z,16.23
2023-01-11T14:19:52.712Z,12.75
2023-01-11T14:22:46.108Z,18.00
2023-01-11T14:25:18.921Z,17.25
2023-01-11T14:27:55.053Z,18.23
2023-01-11T14:30:31.161Z,18.63
2023-01-11T14:33:24.249Z,21.85
2023-01-11T14:36:00.380Z,23.08
2023-01-11T14:38:27.322Z,23.38
2023-01-11T14:40:53.997Z,30.90
2023-01-11T14:43:49.023Z,30.17
2023-01-11T14:46:24.119Z,32.22
2023-01-11T14:51:33.090Z,31.55
2023-01-11T14:54:04.469Z,34.03
2023-01-11T14:56:53.274Z,25.63
2023-01-11T14:59:24.530Z,27.92
2023-01-11T15:02:03.527Z,24.98
2023-01-11T15:04:30.713Z,28.58
2023-01-11T15:06:57.516Z,25.38
2023-01-11T15:09:49.499Z,24.08
2023-01-11T15:12:19.754Z,30.85
2023-01-11T15:14:54.600Z,28.35
2023-01-11T15:17:42.796Z,26.60
2023-01-11T15:20:11.497Z,28.67
2023-01-11T15:22:45.479Z,27.95
2023-01-11T15:25:25.177Z,28.17
2023-01-11T15:27:52.301Z,29.60
2023-01-11T15:30:31.506Z,25.38
2023-01-11T15:33:17.508Z,22.25
2023-01-11T15:36:03.570Z,26.70
2023-01-11T15:38:34.659Z,22.25
2023-01-11T15:41:20.280Z,26.50
2023-01-11T15:44:17.934Z,23.58
2023-01-11T15:47:01.527Z,21.02
2023-01-11T15:50:06.349Z,21.10
2023-01-11T15:52:55.352Z,24.83
2023-01-11T15:55:59.419Z,23.23
2023-01-11T15:58:41.547Z,22.25
2023-01-11T16:01:29.950Z,26.80
2023-01-11T16:04:01.204Z,26.35
2023-01-11T16:06:37.079Z,21.02
2023-01-11T16:09:06.988Z,19.45
2023-01-11T16:11:44.943Z,25.20
2023-01-11T16:14:33.810Z,24.90
2023-01-11T16:17:00.437Z,22.65
2023-01-11T16:19:34.399Z,24.25
2023-01-11T16:22:02.414Z,25.30
2023-01-11T16:24:29.826Z,22.48
2023-01-11T16:26:58.703Z,21.05
2023-01-11T16:29:26.996Z,24.23
2023-01-11T16:32:01.521Z,25.48
2023-01-11T16:34:29.927Z,24.83
2023-01-11T16:36:57.613Z,20.08
2023-01-11T16:39:25.914Z,19.75
2023-01-11T16:42:00.822Z,22.83
2023-01-11T16:44:45.504Z,24.40
2023-01-11T16:47:14.322Z,23.13
2023-01-11T16:49:43.028Z,22.58
2023-01-11T16:52:28.066Z,19.00
2023-01-11T16:54:58.151Z,23.88
2023-01-11T16:57:28.953Z,22.40
2023-01-11T17:00:00.565Z,24.88
2023-01-11T17:02:32.706Z,23.90
2023-01-11T17:05:00.592Z,25.35
2023-01-11T17:07:28.696Z,23.98
2023-01-11T17:10:21.912Z,23.02
2023-01-11T17:13:03.825Z,21.08
2023-01-11T17:15:53.814Z,24.63
2023-01-11T17:18:20.446Z,22.08
2023-01-11T17:20:51.627Z,23.08
2023-01-11T17:23:18.306Z,21.00
2023-01-11T17:25:45.456Z,22.95
2023-01-11T17:28:17.450Z,19.38
2023-01-11T17:30:45.546Z,20.83
2023-01-11T17:33:25.031Z,17.13
2023-01-11T17:35:51.999Z,19.23
2023-01-11T17:38:22.163Z,18.40
2023-01-11T17:40:49.145Z,19.80
2023-01-11T17:43:44.671Z,16.33
2023-01-11T17:46:19.672Z,17.10
2023-01-11T17:49:03.655Z,18.38
2023-01-11T17:51:32.243Z,17.33
2023-01-11T17:53:58.983Z,16.85
2023-01-11T17:56:39.221Z,19.23
2023-01-11T17:59:25.761Z,16.73
2023-01-11T18:02:00.340Z,19.90
2023-01-11T18:04:27.266Z,16.17
2023-01-11T18:06:55.790Z,15.73
2023-01-11T18:09:29.382Z,16.52
2023-01-11T18:12:26.114Z,16.33
2023-01-11T18:14:57.777Z,18.60
2023-01-11T18:17:37.085Z,17.45
2023-01-11T18:20:29.411Z,16.40
2023-01-11T18:23:12.190Z,15.75
2023-01-11T18:25:38.887Z,18.58
2023-01-11T18:28:20.948Z,15.05
2023-01-11T18:30:56.555Z,17.50
2023-01-11T18:33:25.851Z,22.10
2023-01-11T18:35:59.877Z,18.17
2023-01-11T18:38:34.400Z,16.63
2023-01-11T18:41:25.531Z,18.20
2023-01-11T18:43:52.988Z,15.60
2023-01-11T18:46:20.965Z,13.50
2023-01-11T18:48:47.923Z,15.65
2023-01-11T18:51:27.399Z,14.35
2023-01-11T18:53:54.364Z,18.38
2023-01-11T18:56:21.075Z,16.30
2023-01-11T18:58:49.152Z,15.45
2023-01-11T19:01:15.839Z,13.88
2023-01-11T19:03:45.886Z,18.15
2023-01-11T19:06:22.973Z,14.98
2023-01-11T19:08:49.910Z,19.05
2023-01-11T19:11:16.878Z,15.05
2023-01-11T19:13:46.640Z,14.85
2023-01-11T19:16:13.925Z,16.48
2023-01-11T19:18:40.840Z,15.73
2023-01-11T19:21:14.402Z,14.93
2023-01-11T19:23:43.753Z,11.73
2023-01-11T19:26:10.420Z,14.18
2023-01-11T19:28:37.406Z,13.63
2023-01-11T19:31:08.280Z,15.07
2023-01-11T19:33:35.323Z,13.75
2023-01-11T19:36:06.501Z,13.27
2023-01-11T19:38:34.123Z,14.73
2023-01-11T19:41:05.206Z,12.20
2023-01-11T19:43:32.306Z,13.13
2023-01-11T19:45:59.446Z,13.88
2023-01-11T19:48:26.410Z,14.40
2023-01-11T19:51:01.287Z,13.80
2023-01-11T19:53:30.188Z,13.07
2023-01-11T19:56:04.384Z,11.68
2023-01-11T19:58:31.535Z,14.38
2023-01-11T20:00:58.271Z,14.57
2023-01-11T20:03:25.717Z,14.52
2023-01-11T20:05:52.381Z,14.95
2023-01-11T20:08:19.497Z,11.98
2023-01-11T20:10:47.551Z,15.25
2023-01-11T20:13:14.635Z,16.55
2023-01-11T20:15:41.387Z,19.17
2023-01-11T20:18:08.505Z,13.07
2023-01-11T20:20:35.261Z,13.93
2023-01-11T20:23:02.227Z,15.10
2023-01-11T20:25:28.899Z,12.65
2023-01-11T20:27:55.832Z,15.00
2023-01-11T20:30:22.556Z,13.82
2023-01-11T20:32:49.544Z,14.85
2023-01-11T20:35:21.385Z,15.32
2023-01-11T20:37:48.517Z,14.70
2023-01-11T20:40:15.516Z,14.50
2023-01-11T20:42:42.467Z,13.15
2023-01-11T20:45:10.836Z,12.43
2023-01-11T20:47:38.002Z,16.20
2023-01-11T20:50:04.989Z,13.75
2023-01-11T20:52:32.054Z,13.40
2023-01-11T20:54:58.791Z,13.57
2023-01-11T20:57:29.212Z,13.48
2023-01-11T20:59:57.988Z,14.23
2023-01-11T21:02:24.973Z,12.75
2023-01-11T21:05:00.345Z,11.05
2023-01-11T21:07:27.402Z,9.63
2023-01-11T21:09:54.027Z,14.82
2023-01-11T21:12:21.096Z,13.45
2023-01-11T21:14:47.812Z,11.88
2023-01-11T21:17:14.769Z,11.82
2023-01-11T21:19:42.934Z,10.23
2023-01-11T21:22:09.987Z,9.63
2023-01-11T21:24:38.646Z,12.48
2023-01-11T21:27:09.828Z,10.15
2023-01-11T21:29:36.481Z,11.70
2023-01-11T21:32:03.709Z,12.80
2023-01-11T21:34:30.401Z,12.38
2023-01-11T21:36:57.306Z,14.38
2023-01-11T21:39:23.948Z,9.55
2023-01-11T21:41:58.801Z,12.55
2023-01-11T21:44:30.633Z,14.02
2023-01-11T21:46:57.739Z,11.88
2023-01-11T21:49:24.440Z,12.93
2023-01-11T21:51:51.791Z,11.43
2023-01-11T21:54:26.373Z,12.15
2023-01-11T21:56:53.373Z,13.80
2023-01-11T21:59:20.757Z,14.00
2023-01-11T22:01:49.251Z,16.15
2023-01-11T22:04:17.572Z,12.45
2023-01-11T22:06:51.135Z,15.85
2023-01-11T22:09:18.827Z,14.38
2023-01-11T22:11:46.057Z,12.95
2023-01-11T22:14:12.744Z,14.05
2023-01-11T22:16:40.642Z,12.65
2023-01-11T22:19:07.722Z,13.43
2023-01-11T22:21:35.976Z,11.93
2023-01-11T22:24:03.064Z,12.98
2023-01-11T22:26:33.337Z,18.55
2023-01-11T22:29:12.188Z,14.40
2023-01-11T22:31:50.895Z,14.35
2023-01-11T22:34:18.220Z,13.73
2023-01-11T22:36:45.452Z,11.85
2023-01-11T22:39:12.833Z,13.77
2023-01-11T22:41:45.438Z,18.35
2023-01-11T22:44:12.426Z,13.27
2023-01-11T22:46:39.361Z,12.07
2023-01-11T22:49:06.320Z,15.25
2023-01-11T22:51:33.356Z,13.82
2023-01-11T22:54:00.119Z,12.00
2023-01-11T22:56:29.156Z,12.93
2023-01-11T22:58:56.435Z,11.68
2023-01-11T23:01:24.205Z,13.25
2023-01-11T23:03:52.582Z,12.90
2023-01-11T23:06:27.077Z,11.65
2023-01-11T23:08:54.122Z,15.43
2023-01-11T23:11:44.923Z,13.52
2023-01-11T23:14:13.333Z,13.27
2023-01-11T23:16:40.531Z,12.77
2023-01-11T23:19:07.661Z,13.80
2023-01-11T23:21:35.095Z,15.02
2023-01-11T23:24:02.288Z,16.45
2023-01-11T23:26:29.278Z,15.77
2023-01-11T23:28:55.959Z,11.23
2023-01-11T23:31:23.949Z,14.32
2023-01-11T23:33:53.010Z,13.93
2023-01-11T23:36:20.712Z,12.75
2023-01-11T23:38:47.720Z,11.48
2023-01-11T23:41:35.301Z,11.38
2023-01-11T23:44:02.670Z,11.55
2023-01-11T23:46:48.186Z,11.57
2023-01-11T23:49:14.934Z,13.18
2023-01-11T23:51:42.415Z,15.27
2023-01-11T23:54:09.179Z,17.25
2023-01-11T23:56:36.223Z,16.92
2023-01-11T23:59:03.283Z,14.10
